Time;durP1;ratioP1;P1;durP2;ratioP2;P2;SDS_P1;SDS_P2;PMS_P1;PMS_P2;Temp;Humidity;BMP_temperature;BMP_pressure;BME280_temperature;BME280_humidity;BME280_pressure;Samples;Min_cycle;Max_cycle;Signal;HPM_P1;HPM_P2
2021/12/08 00:01:27;;;;;;;1.92;1.27;;;;;;;11.97;49.25;100143.94;144992;570;6002;-90
2021/12/08 00:03:54;;;;;;;1.40;1.10;;;;;;;12.00;48.77;100143.13;144992;601;6003;-89
2021/12/08 00:06:21;;;;;;;1.10;1.00;;;;;;;12.04;49.24;100152.72;144992;579;6002;-88
2021/12/08 00:09:02;;;;;;;1.58;1.20;;;;;;;11.97;49.40;100154.34;144992;563;6002;-90
2021/12/08 00:14:15;;;;;;;1.05;0.90;;;;;;;11.72;48.74;100149.59;144992;573;6004;-87
2021/12/08 00:16:43;;;;;;;1.08;0.90;;;;;;;11.67;47.77;100157.31;144992;571;6004;-86
2021/12/08 00:19:12;;;;;;;1.12;0.82;;;;;;;10.92;46.36;100163.78;144992;590;6004;-89
2021/12/08 00:21:38;;;;;;;1.80;1.00;;;;;;;10.87;47.14;100171.47;144992;596;6004;-84
2021/12/08 00:24:07;;;;;;;1.05;0.90;;;;;;;10.91;48.86;100177.59;144992;579;6004;-89
2021/12/08 00:26:35;;;;;;;0.88;0.70;;;;;;;10.82;47.46;100179.16;144992;590;6004;-85
2021/12/08 00:29:04;;;;;;;1.17;0.98;;;;;;;11.04;48.10;100177.00;144992;635;6004;-88
2021/12/08 00:31:31;;;;;;;0.90;0.77;;;;;;;11.20;47.64;100181.62;144992;601;6004;-88
2021/12/08 00:33:57;;;;;;;1.58;0.90;;;;;;;11.37;48.70;100184.56;144992;595;6004;-89
2021/12/08 00:36:39;;;;;;;1.30;0.90;;;;;;;11.40;48.76;100201.91;144992;572;6004;-86
2021/12/08 00:39:05;;;;;;;2.20;1.00;;;;;;;11.66;48.32;100201.47;144992;584;6004;-86
2021/12/08 00:41:32;;;;;;;1.02;0.80;;;;;;;11.75;48.21;100194.72;144992;573;6004;-85
2021/12/08 00:43:58;;;;;;;1.37;1.02;;;;;;;11.56;48.26;100216.91;144992;619;6004;-87
2021/12/08 00:46:25;;;;;;;1.27;1.00;;;;;;;11.57;46.98;100210.88;144992;579;6004;-87
2021/12/08 00:48:52;;;;;;;0.90;0.80;;;;;;;11.39;48.64;100215.72;144992;618;6005;-86
2021/12/08 00:51:19;;;;;;;1.35;0.90;;;;;;;11.60;48.79;100220.47;144992;567;6004;-88
2021/12/08 00:53:46;;;;;;;2.28;1.10;;;;;;;11.70;48.27;100218.91;144992;589;6004;-87
2021/12/08 00:56:13;;;;;;;1.10;0.90;;;;;;;11.41;46.56;100222.72;144992;566;6004;-86
2021/12/08 00:58:40;;;;;;;1.15;0.80;;;;;;;10.91;46.89;100221.75;144992;571;6004;-86
2021/12/08 01:01:08;;;;;;;1.92;0.75;;;;;;;10.94;46.28;100222.69;144992;608;6004;-86
2021/12/08 01:03:37;;;;;;;0.95;0.70;;;;;;;10.81;48.18;100228.47;144992;595;6004;-88
2021/12/08 01:06:05;;;;;;;1.15;0.80;;;;;;;10.72;46.91;100223.94;144992;597;6004;-88
2021/12/08 01:08:33;;;;;;;1.17;0.70;;;;;;;10.84;47.35;100226.81;144992;597;6004;-89
2021/12/08 01:11:09;;;;;;;1.25;0.90;;;;;;;10.77;45.46;100221.44;144991;595;6000;-87
2021/12/08 01:13:35;;;;;;;1.05;0.70;;;;;;;10.87;47.32;100234.66;144992;575;6002;-89
2021/12/08 01:16:03;;;;;;;1.20;0.80;;;;;;;10.93;46.10;100238.22;144992;582;6002;-87
2021/12/08 01:18:31;;;;;;;1.12;0.80;;;;;;;11.04;46.68;100242.81;144991;603;6002;-87
2021/12/08 01:21:01;;;;;;;1.02;0.80;;;;;;;11.22;47.97;100251.81;144992;563;6002;-86
2021/12/08 01:23:29;;;;;;;1.20;0.90;;;;;;;11.20;47.74;100256.97;144992;628;6002;-87
2021/12/08 01:25:56;;;;;;;1.08;0.90;;;;;;;11.29;47.35;100263.19;144992;583;6002;-89
2021/12/08 01:28:23;;;;;;;1.65;1.10;;;;;;;11.47;47.44;100262.66;144992;571;6002;-85
2021/12/08 01:30:58;;;;;;;0.68;0.52;;;;;;;11.58;47.25;100259.44;144992;569;6002;-86
2021/12/08 01:33:45;;;;;;;1.62;1.27;;;;;;;11.40;47.04;100266.88;144992;576;6003;-80
2021/12/08 01:36:14;;;;;;;1.17;0.88;;;;;;;11.22;46.71;100270.00;144992;579;6002;-88
2021/12/08 01:38:41;;;;;;;1.10;0.90;;;;;;;11.34;47.85;100270.25;144992;612;6002;-87
2021/12/08 01:41:08;;;;;;;2.65;1.00;;;;;;;11.38;46.66;100272.03;144992;615;6002;-90
2021/12/08 01:46:28;;;;;;;1.30;0.80;;;;;;;11.08;47.65;100278.38;144992;572;6004;-87
2021/12/08 01:48:55;;;;;;;2.55;1.00;;;;;;;10.97;47.13;100273.81;144992;617;6004;-87
2021/12/08 01:51:25;;;;;;;1.48;1.15;;;;;;;10.52;48.54;100278.91;144992;591;6004;-87
2021/12/08 01:53:54;;;;;;;2.35;1.30;;;;;;;10.64;49.32;100290.41;144992;567;6004;-88
2021/12/08 01:56:22;;;;;;;1.20;1.08;;;;;;;10.64;49.44;100293.00;144992;568;6004;-87
2021/12/08 01:58:50;;;;;;;1.67;1.00;;;;;;;10.48;50.11;100294.37;144992;713;6004;-88
2021/12/08 02:01:19;;;;;;;2.00;1.05;;;;;;;10.52;50.05;100309.19;144992;567;6004;-86
2021/12/08 02:03:49;;;;;;;1.67;1.05;;;;;;;10.15;50.96;100308.28;144992;734;6004;-87
2021/12/08 02:06:17;;;;;;;2.35;1.23;;;;;;;10.03;50.63;100311.41;144992;574;6004;-87
2021/12/08 02:08:51;;;;;;;3.10;1.40;;;;;;;10.15;51.06;100319.50;144992;567;6004;-88
2021/12/08 02:11:19;;;;;;;1.40;1.15;;;;;;;10.13;51.26;100316.00;144992;572;6004;-88
2021/12/08 02:13:46;;;;;;;1.50;1.00;;;;;;;10.43;50.53;100320.19;144992;598;6004;-86
2021/12/08 02:16:16;;;;;;;1.60;1.08;;;;;;;10.57;50.18;100317.06;144992;581;6004;-86
2021/12/08 02:18:47;;;;;;;1.30;1.08;;;;;;;10.63;50.18;100325.00;144992;594;6004;-87
2021/12/08 02:21:43;;;;;;;1.77;1.05;;;;;;;10.73;50.12;100337.34;144992;604;6004;-89
2021/12/08 02:24:15;;;;;;;1.30;1.12;;;;;;;10.85;50.06;100336.75;144992;618;6002;-85
2021/12/08 02:26:45;;;;;;;1.40;1.00;;;;;;;10.78;48.98;100333.13;144992;661;6002;-86
2021/12/08 02:29:21;;;;;;;1.33;0.80;;;;;;;10.92;48.83;100336.03;144992;585;6002;-87
2021/12/08 02:31:56;;;;;;;1.12;1.02;;;;;;;10.98;49.81;100340.50;144992;571;6010;-87
2021/12/08 02:48:05;;;;;;;3.00;0.90;;;;;;;11.00;45.88;100349.19;144992;575;6005;-89
2021/12/08 02:50:39;;;;;;;1.87;0.88;;;;;;;11.00;48.25;100333.62;144992;654;6004;-88
2021/12/08 02:53:08;;;;;;;1.70;0.88;;;;;;;11.15;48.22;100335.66;144992;618;6004;-87
2021/12/08 02:55:36;;;;;;;2.12;0.90;;;;;;;11.19;48.26;100337.50;144992;641;6004;-87
2021/12/08 02:58:04;;;;;;;1.02;0.90;;;;;;;11.18;48.21;100335.72;144992;568;6004;-90
2021/12/08 03:00:37;;;;;;;1.12;0.90;;;;;;;11.15;48.35;100333.06;144992;617;6004;-87
2021/12/08 03:03:05;;;;;;;1.48;0.90;;;;;;;10.94;46.60;100333.47;144992;688;6004;-89
2021/12/08 03:05:33;;;;;;;0.93;0.80;;;;;;;11.02;47.96;100337.12;144992;605;6004;-90
2021/12/08 03:08:00;;;;;;;1.37;0.85;;;;;;;10.91;47.87;100334.28;144992;617;6004;-87
2021/12/08 03:10:31;;;;;;;1.10;0.80;;;;;;;10.70;47.54;100335.53;144992;686;6004;-88
2021/12/08 03:12:58;;;;;;;1.20;1.10;;;;;;;10.75;48.42;100339.97;144992;647;6004;-86
2021/12/08 03:15:24;;;;;;;3.67;0.90;;;;;;;10.89;48.26;100342.03;144992;581;6004;-88
2021/12/08 03:17:51;;;;;;;1.08;0.75;;;;;;;10.33;46.85;100333.81;144992;576;6004;-86
2021/12/08 03:20:23;;;;;;;1.85;0.82;;;;;;;10.50;48.26;100335.09;144993;577;6000;-86
2021/12/08 03:22:52;;;;;;;1.02;0.73;;;;;;;10.37;46.60;100335.63;144993;600;6002;-89
2021/12/08 03:25:20;;;;;;;1.05;0.70;;;;;;;10.46;47.61;100354.00;144993;619;6002;-88
2021/12/08 03:28:05;;;;;;;2.05;0.80;;;;;;;10.57;47.58;100363.78;144993;618;6002;-87
2021/12/08 03:30:39;;;;;;;3.03;0.60;;;;;;;10.50;47.05;100374.03;144993;613;6002;-90
2021/12/08 03:33:05;;;;;;;1.00;0.77;;;;;;;10.46;47.53;100373.91;144993;571;6002;-89
2021/12/08 03:35:32;;;;;;;0.90;0.65;;;;;;;10.57;47.43;100382.84;144992;678;6002;-87
2021/12/08 03:37:59;;;;;;;1.80;0.90;;;;;;;10.73;46.47;100396.19;144993;580;6002;-91
2021/12/08 03:40:27;;;;;;;1.58;0.88;;;;;;;10.67;45.62;100384.81;144993;569;6002;-87
2021/12/08 03:42:57;;;;;;;1.45;0.90;;;;;;;10.97;47.24;100388.97;144993;608;6002;-87
2021/12/08 03:45:46;;;;;;;2.72;0.90;;;;;;;10.93;45.46;100399.22;144993;583;6002;-87
2021/12/08 03:48:23;;;;;;;2.40;0.80;;;;;;;10.85;44.75;100399.09;144993;567;6000;-86
2021/12/08 03:50:50;;;;;;;4.45;0.90;;;;;;;10.79;44.71;100392.00;144992;616;6002;-87
2021/12/08 03:53:17;;;;;;;1.75;0.93;;;;;;;10.92;46.78;100400.97;144992;621;6002;-88
2021/12/08 03:55:51;;;;;;;1.42;0.90;;;;;;;11.11;46.59;100402.25;144992;606;6002;-88
2021/12/08 03:58:18;;;;;;;2.42;0.98;;;;;;;10.81;44.87;100408.50;144992;586;6002;-86
2021/12/08 04:00:47;;;;;;;3.62;1.00;;;;;;;10.87;46.41;100408.66;144992;587;6002;-89
2021/12/08 04:03:14;;;;;;;0.77;0.77;;;;;;;10.97;46.58;100407.13;144992;578;6002;-88
2021/12/08 04:05:51;;;;;;;1.30;0.90;;;;;;;10.94;47.08;100414.00;144993;622;6002;-89
2021/12/08 04:08:27;;;;;;;1.55;0.90;;;;;;;10.67;45.33;100417.66;144993;651;6002;-86
2021/12/08 04:10:54;;;;;;;1.60;1.00;;;;;;;10.40;45.57;100429.09;144993;631;6002;-88
2021/12/08 04:13:46;;;;;;;1.05;0.88;;;;;;;10.68;46.51;100433.28;144993;616;6002;-86
2021/12/08 04:16:15;;;;;;;1.40;1.02;;;;;;;10.87;47.00;100442.41;144993;601;6002;-87
2021/12/08 04:18:42;;;;;;;2.85;1.30;;;;;;;10.86;46.87;100445.88;144993;579;6002;-86
2021/12/08 04:21:11;;;;;;;2.05;1.20;;;;;;;10.55;45.35;100454.59;144993;592;6002;-86
2021/12/08 04:23:40;;;;;;;2.33;1.10;;;;;;;10.78;46.65;100462.06;144993;564;6002;-90
2021/12/08 04:26:14;;;;;;;1.80;1.17;;;;;;;10.83;47.15;100476.03;144993;583;6002;-87
2021/12/08 04:28:41;;;;;;;2.05;1.48;;;;;;;11.03;46.78;100471.34;144993;609;6002;-88
2021/12/08 04:31:18;;;;;;;2.00;1.40;;;;;;;10.92;46.54;100475.41;144993;569;6002;-88
2021/12/08 04:33:47;;;;;;;2.17;1.37;;;;;;;10.71;46.81;100477.50;144993;570;6002;-90
2021/12/08 04:36:16;;;;;;;2.37;1.30;;;;;;;10.68;46.75;100486.94;144993;569;6002;-88
2021/12/08 04:38:44;;;;;;;2.17;1.30;;;;;;;10.80;47.02;100492.44;144993;586;6002;-88
2021/12/08 04:41:17;;;;;;;1.52;1.33;;;;;;;10.80;45.16;100491.56;144993;603;6002;-90
2021/12/08 04:44:00;;;;;;;1.40;1.20;;;;;;;10.46;44.68;100488.97;144993;560;6002;-89
2021/12/08 04:52:46;;;;;;;3.42;1.73;;;;;;;10.63;46.81;100514.50;144993;580;6004;-89
2021/12/08 05:01:55;;;;;;;3.78;1.60;;;;;;;10.54;46.48;100509.94;144994;640;5004;-87
2021/12/08 05:04:48;;;;;;;3.00;1.50;;;;;;;10.80;46.37;100522.72;144994;570;5002;-89
2021/12/08 05:07:50;;;;;;;1.62;1.20;;;;;;;10.10;46.16;100519.94;144994;570;5002;-86
2021/12/08 05:10:24;;;;;;;2.15;1.58;;;;;;;10.20;47.97;100528.84;144994;684;5002;-87
2021/12/08 05:12:52;;;;;;;2.50;1.83;;;;;;;10.56;47.14;100525.53;144994;574;5002;-88
2021/12/08 05:15:32;;;;;;;3.05;1.87;;;;;;;10.42;47.70;100538.13;144994;634;5002;-86
2021/12/08 05:18:22;;;;;;;3.50;2.00;;;;;;;10.58;47.20;100539.44;144994;608;5002;-86
2021/12/08 05:20:56;;;;;;;3.00;2.10;;;;;;;10.35;47.66;100547.47;144994;573;5002;-87
2021/12/08 05:23:33;;;;;;;3.92;1.80;;;;;;;9.96;48.51;100555.84;144994;604;5002;-88
2021/12/08 05:26:05;;;;;;;3.20;1.70;;;;;;;9.74;48.87;100560.38;144994;648;5002;-87
2021/12/08 05:28:32;;;;;;;2.97;1.80;;;;;;;9.77;48.78;100572.56;144994;575;5002;-89
2021/12/08 05:31:10;;;;;;;3.62;1.65;;;;;;;10.31;48.46;100569.84;144994;620;5002;-88
2021/12/08 05:33:39;;;;;;;1.95;1.75;;;;;;;10.50;47.78;100580.78;144994;566;5002;-84
2021/12/08 05:36:06;;;;;;;2.58;1.83;;;;;;;10.57;48.17;100580.09;144994;614;5002;-87
2021/12/08 05:38:33;;;;;;;3.90;1.90;;;;;;;10.39;48.41;100587.34;144994;585;5002;-90
2021/12/08 05:41:11;;;;;;;2.87;1.92;;;;;;;10.46;48.66;100595.38;144994;651;5002;-88
2021/12/08 05:43:38;;;;;;;5.22;1.85;;;;;;;10.58;48.31;100604.31;144994;587;5002;-86
2021/12/08 05:46:06;;;;;;;3.90;2.05;;;;;;;10.66;48.33;100615.81;144994;573;5003;-89
2021/12/08 05:48:33;;;;;;;3.78;2.08;;;;;;;10.53;48.51;100602.50;144994;574;5002;-86
2021/12/08 05:51:14;;;;;;;6.35;2.17;;;;;;;10.56;48.17;100617.25;144994;579;5002;-86
2021/12/08 05:53:45;;;;;;;2.67;1.80;;;;;;;10.53;48.48;100619.81;144994;644;5002;-88
2021/12/08 05:56:12;;;;;;;2.28;1.80;;;;;;;10.49;47.88;100623.13;144994;637;5002;-88
2021/12/08 05:58:40;;;;;;;3.25;1.70;;;;;;;10.65;47.99;100616.66;144994;594;5002;-87
2021/12/08 06:01:32;;;;;;;4.95;2.08;;;;;;;10.70;47.65;100628.91;144994;589;5002;-89
2021/12/08 06:04:00;;;;;;;3.45;1.83;;;;;;;10.74;46.98;100635.09;144994;607;5004;-89
2021/12/08 06:06:27;;;;;;;6.03;2.47;;;;;;;11.17;47.75;100644.03;144994;566;5004;-88
2021/12/08 06:08:54;;;;;;;3.95;1.98;;;;;;;11.92;46.51;100637.22;144994;590;5004;-89
2021/12/08 06:11:22;;;;;;;8.35;2.33;;;;;;;12.57;45.92;100648.16;144994;561;5004;-90
2021/12/08 06:13:52;;;;;;;3.65;2.80;;;;;;;13.37;44.95;100653.16;144994;601;5004;-89
2021/12/08 06:16:21;;;;;;;5.87;3.60;;;;;;;14.06;44.29;100663.84;144994;698;5004;-86
2021/12/08 06:18:51;;;;;;;7.30;3.70;;;;;;;14.69;43.06;100669.91;144994;617;5004;-88
2021/12/08 06:21:22;;;;;;;10.13;4.03;;;;;;;15.22;42.90;100679.22;144994;580;5004;-91
2021/12/08 06:23:48;;;;;;;8.68;4.00;;;;;;;15.75;42.05;100693.66;144994;573;5004;-91
2021/12/08 06:26:18;;;;;;;4.95;3.42;;;;;;;16.30;40.96;100702.78;144994;566;5004;-89
2021/12/08 06:28:46;;;;;;;5.50;3.30;;;;;;;16.62;40.22;100697.75;144994;567;5004;-91
2021/12/08 06:31:21;;;;;;;5.40;2.85;;;;;;;16.85;40.76;100694.31;144994;566;5005;-90
2021/12/08 06:33:48;;;;;;;5.45;3.40;;;;;;;17.10;40.20;100711.06;144994;707;5004;-91
2021/12/08 06:36:22;;;;;;;4.18;2.90;;;;;;;17.26;40.38;100706.72;144994;570;5004;-90
2021/12/08 06:38:49;;;;;;;4.72;3.03;;;;;;;17.33;40.34;100708.47;144994;607;5004;-89
2021/12/08 06:41:34;;;;;;;3.28;2.90;;;;;;;17.34;40.76;100715.47;144994;587;5004;-90
2021/12/08 06:44:10;;;;;;;4.37;2.50;;;;;;;17.49;41.03;100724.25;144994;613;5004;-89
2021/12/08 06:46:39;;;;;;;4.70;2.50;;;;;;;17.66;40.63;100727.75;144994;615;5004;-88
2021/12/08 06:49:10;;;;;;;6.78;2.75;;;;;;;17.85;40.22;100733.00;144994;628;5004;-90
2021/12/08 06:51:41;;;;;;;10.27;5.00;;;;;;;17.99;40.48;100738.28;144994;587;5004;-87
2021/12/08 06:54:15;;;;;;;6.22;4.70;;;;;;;18.11;39.95;100743.53;144994;589;5004;-89
2021/12/08 06:56:57;;;;;;;5.12;3.42;;;;;;;18.27;39.41;100745.25;144994;592;5004;-92
2021/12/08 06:59:31;;;;;;;3.45;2.33;;;;;;;18.36;39.18;100744.38;144994;600;5004;-90
2021/12/08 07:02:11;;;;;;;3.62;2.28;;;;;;;18.47;38.94;100744.38;144994;615;5004;-89
2021/12/08 07:05:09;;;;;;;4.45;2.20;;;;;;;18.54;38.42;100753.97;144994;565;5004;-89
2021/12/08 07:07:40;;;;;;;3.30;1.90;;;;;;;18.59;38.86;100748.72;144994;693;5005;-88
2021/12/08 07:10:20;;;;;;;1.98;1.60;;;;;;;18.54;38.27;100761.88;144994;604;5004;-87
2021/12/08 07:12:54;;;;;;;2.00;1.40;;;;;;;18.64;38.39;100757.44;144994;561;5004;-89
2021/12/08 07:15:45;;;;;;;2.95;1.60;;;;;;;18.56;38.32;100760.09;144994;670;5005;-88
2021/12/08 07:18:56;;;;;;;1.65;1.30;;;;;;;18.26;38.68;100767.19;144994;598;5004;-90
2021/12/08 07:21:30;;;;;;;2.75;1.50;;;;;;;18.21;38.06;100762.78;144994;576;5004;-94
2021/12/08 07:24:01;;;;;;;2.75;1.20;;;;;;;18.11;37.54;100751.44;144994;585;5004;-87
2021/12/08 07:26:32;;;;;;;1.42;1.10;;;;;;;18.22;38.27;100746.16;144994;684;5004;-89
2021/12/08 07:29:00;;;;;;;1.67;1.30;;;;;;;18.25;34.36;100746.16;144994;591;5004;-80
2021/12/08 07:31:35;;;;;;;1.55;1.20;;;;;;;18.28;37.81;100748.78;144994;589;5004;-89
2021/12/08 07:34:06;;;;;;;3.53;1.50;;;;;;;18.34;38.21;100764.56;144994;581;5004;-87
2021/12/08 07:36:42;;;;;;;2.60;1.50;;;;;;;18.36;38.05;100757.53;144994;604;5004;-87
2021/12/08 07:39:23;;;;;;;3.20;2.15;;;;;;;18.35;38.23;100760.16;144994;600;5004;-90
2021/12/08 07:41:53;;;;;;;3.58;2.40;;;;;;;18.36;38.00;100765.41;144994;571;5004;-87
2021/12/08 07:44:22;;;;;;;3.37;2.28;;;;;;;18.41;37.12;100768.03;144994;567;5004;-87
2021/12/08 07:47:03;;;;;;;4.40;2.87;;;;;;;18.52;38.04;100770.62;144994;577;5004;-88
2021/12/08 07:49:36;;;;;;;2.30;1.85;;;;;;;18.54;37.59;100776.78;144994;578;5013;-87
2021/12/08 07:52:09;;;;;;;3.70;3.17;;;;;;;18.60;37.56;100787.28;144994;580;5004;-85
2021/12/08 07:54:37;;;;;;;3.53;1.73;;;;;;;18.55;37.08;100783.75;144994;571;5004;-88
2021/12/08 07:57:08;;;;;;;1.73;1.12;;;;;;;18.42;35.98;100793.41;144994;576;5004;-89
2021/12/08 07:59:37;;;;;;;1.95;1.33;;;;;;;18.33;37.25;100803.97;144994;578;5004;-86
2021/12/08 08:02:07;;;;;;;1.80;1.33;;;;;;;18.29;37.02;100803.06;144994;562;5004;-86
2021/12/08 08:04:37;;;;;;;1.75;1.50;;;;;;;18.25;37.38;100798.72;144994;577;5004;-89
2021/12/08 08:07:05;;;;;;;2.75;2.08;;;;;;;18.31;37.09;100796.09;144994;578;5004;-90
2021/12/08 08:09:39;;;;;;;2.58;1.30;;;;;;;18.45;37.29;100806.56;144994;632;5004;-89
2021/12/08 08:12:08;;;;;;;2.00;1.60;;;;;;;18.53;36.76;100817.06;144994;569;5004;-86
2021/12/08 08:14:39;;;;;;;3.20;1.50;;;;;;;18.28;31.42;100811.84;144994;571;5004;-87
2021/12/08 08:17:16;;;;;;;4.53;3.53;;;;;;;18.51;36.71;100822.31;144993;601;5004;-89
2021/12/08 08:19:49;;;;;;;4.72;2.67;;;;;;;18.49;33.21;100818.84;144994;585;5002;-87
2021/12/08 08:22:22;;;;;;;5.18;3.45;;;;;;;18.54;37.08;100818.81;144994;603;5002;-88
2021/12/08 08:24:53;;;;;;;5.75;2.95;;;;;;;18.49;36.72;100817.06;144994;592;5002;-90
2021/12/08 08:27:31;;;;;;;2.15;1.73;;;;;;;18.49;36.43;100805.69;144994;577;5002;-89
2021/12/08 08:30:08;;;;;;;2.92;1.73;;;;;;;18.72;35.97;100805.63;144993;595;5002;-89
2021/12/08 08:32:39;;;;;;;2.42;1.37;;;;;;;18.72;35.92;100810.03;144994;564;5002;-85
2021/12/08 08:35:25;;;;;;;2.90;1.75;;;;;;;18.80;35.97;100811.78;144994;616;5002;-84
2021/12/08 08:37:52;;;;;;;2.42;1.48;;;;;;;18.85;35.74;100811.78;144994;623;5002;-86
2021/12/08 08:40:30;;;;;;;5.07;2.03;;;;;;;18.86;35.38;100818.78;144994;570;5002;-87
2021/12/08 08:42:59;;;;;;;4.12;1.80;;;;;;;18.95;35.42;100817.91;144994;553;5002;-85
2021/12/08 08:45:35;;;;;;;6.60;2.30;;;;;;;18.98;35.09;100810.88;144994;573;5002;-88
2021/12/08 08:48:10;;;;;;;3.12;2.00;;;;;;;19.03;35.50;100808.22;144994;592;5002;-90
2021/12/08 08:50:50;;;;;;;3.80;1.83;;;;;;;19.07;35.27;100806.44;144994;602;5002;-90
2021/12/08 08:53:21;;;;;;;3.55;1.92;;;;;;;19.04;34.80;100804.69;144994;572;5002;-88
2021/12/08 08:56:14;;;;;;;2.62;2.12;;;;;;;18.94;35.62;100805.63;144994;572;5002;-87
2021/12/08 08:58:45;;;;;;;3.25;2.80;;;;;;;19.04;35.27;100807.31;144994;573;5004;-88
2021/12/08 09:01:29;;;;;;;5.93;3.28;;;;;;;18.91;34.86;100814.38;144994;628;5004;-87
2021/12/08 09:04:12;;;;;;;1.62;1.30;;;;;;;19.03;35.20;100811.72;144994;568;5004;-86
2021/12/08 09:07:02;;;;;;;2.28;1.40;;;;;;;19.15;35.23;100802.03;144994;571;5004;-86
2021/12/08 09:10:00;;;;;;;2.67;1.40;;;;;;;19.12;34.60;100802.94;144994;579;5004;-80
2021/12/08 09:13:07;;;;;;;1.90;1.42;;;;;;;19.17;35.05;100800.28;144994;565;5004;-85
2021/12/08 09:15:51;;;;;;;3.45;2.40;;;;;;;19.10;34.45;100796.78;144994;599;5002;-80
2021/12/08 09:18:41;;;;;;;2.50;1.67;;;;;;;19.19;34.68;100809.03;144994;608;5002;-88
2021/12/08 09:21:54;;;;;;;4.25;2.20;;;;;;;19.07;33.55;100796.78;144994;585;5002;-88
2021/12/08 09:24:47;;;;;;;3.55;1.20;;;;;;;19.30;34.81;100801.97;144994;568;5004;-86
2021/12/08 09:27:19;;;;;;;1.48;1.15;;;;;;;19.36;34.57;100801.06;144994;627;5002;-85
2021/12/08 09:29:55;;;;;;;5.90;1.50;;;;;;;19.37;34.36;100798.41;144994;574;5002;-85
2021/12/08 09:32:47;;;;;;;2.65;1.42;;;;;;;19.20;34.45;100816.03;144994;604;5002;-86
2021/12/08 09:35:45;;;;;;;2.70;1.10;;;;;;;19.33;33.83;100807.22;144994;632;4568;-87
2021/12/08 09:38:19;;;;;;;4.18;1.40;;;;;;;19.21;34.05;100810.75;144993;575;6002;-88
2021/12/08 09:41:13;;;;;;;10.27;6.10;;;;;;;19.36;33.85;100812.47;144992;592;6002;-86
2021/12/08 09:43:45;;;;;;;2.22;1.90;;;;;;;19.36;33.61;100801.94;144992;592;6005;-85
2021/12/08 09:46:20;;;;;;;1.67;1.30;;;;;;;19.49;33.66;100802.72;144992;583;6004;-89
2021/12/08 09:48:48;;;;;;;1.48;1.23;;;;;;;19.36;33.79;100799.28;144992;603;6004;-86
2021/12/08 09:51:19;;;;;;;1.85;1.33;;;;;;;19.45;33.78;100790.47;144992;577;6005;-86
2021/12/08 09:53:48;;;;;;;1.98;1.30;;;;;;;19.52;33.88;100786.94;144992;572;6004;-85
2021/12/08 09:56:16;;;;;;;2.37;1.35;;;;;;;19.61;33.68;100793.00;144992;592;6004;-86
2021/12/08 09:58:43;;;;;;;3.15;1.40;;;;;;;19.63;32.92;100785.97;144992;585;6005;-88
2021/12/08 10:01:15;;;;;;;1.90;1.40;;;;;;;19.57;33.73;100784.25;144992;681;6004;-85
2021/12/08 10:03:44;;;;;;;1.95;1.40;;;;;;;19.58;33.04;100786.00;144992;577;6004;-84
2021/12/08 10:06:14;;;;;;;2.65;1.40;;;;;;;19.65;33.51;100785.09;144992;577;6004;-85
2021/12/08 10:08:46;;;;;;;2.75;1.37;;;;;;;19.69;33.39;100780.66;144992;573;6004;-86
2021/12/08 10:11:19;;;;;;;3.00;1.30;;;;;;;19.84;33.14;100771.81;144992;594;6004;-86
2021/12/08 10:13:46;;;;;;;2.72;1.58;;;;;;;19.71;33.13;100770.97;144992;589;6004;-88
2021/12/08 10:16:15;;;;;;;2.37;1.27;;;;;;;19.67;33.28;100766.63;144992;588;6004;-86
2021/12/08 10:18:44;;;;;;;3.22;1.83;;;;;;;19.58;32.96;100776.34;144992;565;6004;-86
2021/12/08 10:21:13;;;;;;;3.53;2.22;;;;;;;19.36;33.09;100780.88;144992;571;6004;-88
2021/12/08 10:23:46;;;;;;;3.50;1.85;;;;;;;18.90;30.01;100777.56;144992;581;6004;-86
2021/12/08 10:26:20;;;;;;;3.90;2.30;;;;;;;19.26;33.37;100773.03;144992;582;6004;-86
2021/12/08 10:28:55;;;;;;;2.53;1.65;;;;;;;19.01;30.36;100776.66;144992;627;6004;-87
2021/12/08 10:31:27;;;;;;;1.45;1.23;;;;;;;19.03;32.40;100761.72;144992;641;6004;-87
2021/12/08 10:34:23;;;;;;;3.83;2.50;;;;;;;19.22;32.29;100769.53;144992;573;6004;-87
2021/12/08 10:36:56;;;;;;;4.95;2.37;;;;;;;19.23;32.34;100762.50;144992;602;6004;-85
2021/12/08 10:39:47;;;;;;;2.17;1.60;;;;;;;18.91;32.29;100774.06;144992;574;6004;-86
2021/12/08 10:42:22;;;;;;;0.90;0.85;;;;;;;18.72;32.83;100770.59;144992;587;6004;-85
2021/12/08 10:45:21;;;;;;;3.00;2.67;;;;;;;18.53;32.33;100767.12;144992;595;6004;-86
2021/12/08 10:47:55;;;;;;;3.42;1.95;;;;;;;18.25;29.89;100768.03;144992;632;6004;-85
2021/12/08 10:56:03;;;;;;;3.08;1.37;;;;;;;18.11;31.79;100767.19;144992;583;6004;-86
2021/12/08 10:58:33;;;;;;;2.50;1.70;;;;;;;18.33;32.47;100770.66;144992;593;6005;-88
2021/12/08 11:01:11;;;;;;;2.37;1.40;;;;;;;17.60;30.56;100767.12;144992;592;6004;-87
2021/12/08 11:03:39;;;;;;;5.75;2.47;;;;;;;17.94;32.53;100775.06;144992;575;6004;-85
2021/12/08 11:06:07;;;;;;;3.75;2.25;;;;;;;17.72;30.40;100787.25;144992;595;6005;-86
2021/12/08 11:08:37;;;;;;;3.00;2.03;;;;;;;17.99;32.60;100783.84;144992;659;6004;-84
2021/12/08 11:11:20;;;;;;;3.62;1.80;;;;;;;18.19;32.84;100780.31;144992;616;6004;-87
2021/12/08 11:13:52;;;;;;;4.90;1.87;;;;;;;18.39;32.86;100789.06;144992;567;6004;-86
2021/12/08 11:16:32;;;;;;;3.03;2.08;;;;;;;18.42;32.86;100789.06;144992;589;6004;-85
2021/12/08 11:19:19;;;;;;;1.83;1.62;;;;;;;18.44;32.33;100791.69;144992;583;6004;-87
2021/12/08 11:21:48;;;;;;;5.72;1.60;;;;;;;18.31;30.70;100782.94;144992;578;6004;-84
2021/12/08 11:24:25;;;;;;;2.28;1.37;;;;;;;18.52;32.57;100789.91;144992;593;6004;-85
2021/12/08 11:26:52;;;;;;;5.55;3.12;;;;;;;18.55;32.94;100779.41;144992;588;6004;-87
2021/12/08 11:30:01;;;;;;;2.05;1.17;;;;;;;18.43;32.79;100777.66;144992;634;6004;-86
2021/12/08 11:32:38;;;;;;;1.23;1.02;;;;;;;18.43;32.46;100775.03;144992;605;6002;-86
2021/12/08 11:35:17;;;;;;;1.83;1.12;;;;;;;18.65;32.65;100781.09;144992;633;6002;-86
2021/12/08 11:37:44;;;;;;;1.50;1.20;;;;;;;18.54;30.03;100768.87;144992;608;6002;-87
2021/12/08 11:40:19;;;;;;;3.30;1.48;;;;;;;18.27;29.63;100763.66;144992;596;6002;-87
2021/12/08 11:42:49;;;;;;;1.75;1.60;;;;;;;18.59;32.64;100775.00;144992;589;6002;-86
2021/12/08 11:45:17;;;;;;;3.35;1.70;;;;;;;18.54;32.34;100767.12;144992;662;6002;-86
2021/12/08 11:47:44;;;;;;;1.75;1.52;;;;;;;18.59;32.52;100769.75;144992;573;6002;-86
2021/12/08 11:50:22;;;;;;;4.40;1.65;;;;;;;18.44;32.59;100775.91;144992;631;6002;-88
2021/12/08 11:52:53;;;;;;;2.58;2.20;;;;;;;18.36;32.59;100778.56;144992;605;6002;-85
2021/12/08 11:55:22;;;;;;;2.85;1.67;;;;;;;18.53;32.55;100768.00;144992;593;6002;-86
2021/12/08 11:57:58;;;;;;;6.00;1.98;;;;;;;18.27;30.87;100775.94;144992;587;6002;-86
2021/12/08 12:00:38;;;;;;;2.30;1.30;;;;;;;17.96;30.85;100770.69;144992;594;6002;-85
2021/12/08 12:03:09;;;;;;;2.35;2.08;;;;;;;18.05;32.48;100772.44;144992;612;6002;-85
2021/12/08 12:05:42;;;;;;;3.17;2.03;;;;;;;18.17;32.80;100771.56;144992;614;6003;-86
2021/12/08 12:08:11;;;;;;;4.15;2.25;;;;;;;18.05;32.94;100770.69;144992;625;6002;-86
2021/12/08 12:10:43;;;;;;;3.53;2.20;;;;;;;18.29;32.58;100782.06;144992;577;6002;-85
2021/12/08 12:13:10;;;;;;;2.78;2.00;;;;;;;18.40;32.47;100777.66;144992;605;6002;-85
2021/12/08 12:15:40;;;;;;;1.85;1.50;;;;;;;18.47;32.52;100779.41;144992;600;6002;-85
2021/12/08 12:18:08;;;;;;;3.55;1.35;;;;;;;18.58;32.19;100770.59;144992;571;6002;-86
2021/12/08 12:21:23;;;;;;;3.15;1.15;;;;;;;18.54;31.76;100767.12;144992;774;6002;-86
2021/12/08 12:24:21;;;;;;;6.18;2.92;;;;;;;18.58;31.93;100766.25;144992;593;6002;-85
2021/12/08 12:27:13;;;;;;;2.17;1.40;;;;;;;18.61;32.32;100784.66;144992;669;6004;-86
2021/12/08 12:30:21;;;;;;;3.78;1.20;;;;;;;18.68;32.19;100790.75;144992;565;6002;-87
2021/12/08 12:32:54;;;;;;;2.72;1.40;;;;;;;18.74;32.71;100801.25;144992;571;6004;-87
2021/12/08 12:35:31;;;;;;;2.05;1.30;;;;;;;18.41;32.21;100808.31;144992;591;6004;-85
2021/12/08 12:38:09;;;;;;;1.70;1.30;;;;;;;18.43;30.81;100808.31;144992;591;6004;-85
2021/12/08 12:40:40;;;;;;;2.00;1.20;;;;;;;18.42;32.58;100802.19;144992;567;6004;-89
2021/12/08 12:43:07;;;;;;;2.90;1.40;;;;;;;18.51;32.45;100806.56;144992;586;6004;-85